createdAt,value
2017-06-05T00:00:39.843Z,83.97
2017-06-05T00:01:20.731Z,83.68
2017-06-05T00:02:01.621Z,83.01
2017-06-05T00:02:42.521Z,82.53
2017-06-05T00:03:23.399Z,82.43
2017-06-05T00:04:04.284Z,82.73
2017-06-05T00:04:45.183Z,82.24
2017-06-05T00:05:26.067Z,82.15
2017-06-05T00:06:06.955Z,82.73
2017-06-05T00:06:47.851Z,82.63
2017-06-05T00:07:28.754Z,83.01
2017-06-05T00:08:09.640Z,82.73
2017-06-05T00:08:50.535Z,83.01
2017-06-05T00:09:31.424Z,83.68
2017-06-05T00:10:12.311Z,83.2
2017-06-05T00:10:53.204Z,83.01
2017-06-05T00:11:34.129Z,83.11
2017-06-05T00:12:15.012Z,83.68
2017-06-05T00:12:55.893Z,83.68
2017-06-05T00:13:36.779Z,83.68
2017-06-05T00:14:17.664Z,83.87
2017-06-05T00:14:58.546Z,83.78
2017-06-05T00:15:39.429Z,83.68
2017-06-05T00:16:20.312Z,83.78
2017-06-05T00:17:01.209Z,83.78
2017-06-05T00:17:42.118Z,83.87
2017-06-05T00:18:23.016Z,83.87
2017-06-05T00:19:03.908Z,84.06
2017-06-05T00:19:44.801Z,84.64
2017-06-05T00:20:25.695Z,85.5
2017-06-05T00:21:06.593Z,85.12
2017-06-05T00:21:47.482Z,85.6
2017-06-05T00:22:28.369Z,85.12
2017-06-05T00:23:09.273Z,85.12
2017-06-05T00:23:50.162Z,84.88
2017-06-05T00:24:31.049Z,84.39
2017-06-05T00:25:11.912Z,84.39
2017-06-05T00:25:52.801Z,84.68
2017-06-05T00:26:33.691Z,84.39
2017-06-05T00:27:14.580Z,84.39
2017-06-05T00:27:55.491Z,84.3
2017-06-05T00:28:36.387Z,84.39
2017-06-05T00:29:17.259Z,84.39
2017-06-05T00:29:58.156Z,84.11
2017-06-05T00:30:39.048Z,84.11
2017-06-05T00:31:19.929Z,84.2
2017-06-05T00:32:00.830Z,84.49
2017-06-05T00:32:41.722Z,84.3
2017-06-05T00:33:22.615Z,84.78
2017-06-05T00:34:03.510Z,84.68
2017-06-05T00:34:44.401Z,84.49
2017-06-05T00:35:25.306Z,84.68
2017-06-05T00:36:06.217Z,84.88
2017-06-05T00:36:47.101Z,84.49
2017-06-05T00:37:28.003Z,84.58
2017-06-05T00:38:08.896Z,84.58
2017-06-05T00:38:49.784Z,85.25
2017-06-05T00:39:30.681Z,84.58
2017-06-05T00:40:11.567Z,84.88
2017-06-05T00:40:52.451Z,85.35
2017-06-05T00:41:33.337Z,84.97
2017-06-05T00:42:14.226Z,84.68
2017-06-05T00:42:55.177Z,84.49
2017-06-05T00:43:36.062Z,84.88
2017-06-05T00:44:16.977Z,84.97
2017-06-05T00:44:57.860Z,85.06
2017-06-05T00:45:38.741Z,85.25
2017-06-05T00:46:19.643Z,85.64
2017-06-05T00:47:00.530Z,85.35
2017-06-05T00:47:41.409Z,86.02
2017-06-05T00:48:22.302Z,85.45
2017-06-05T00:49:03.221Z,85.54
2017-06-05T00:49:44.112Z,85.06
2017-06-05T00:50:25.019Z,84.97
2017-06-05T00:51:05.907Z,85.16
2017-06-05T00:51:46.797Z,85.35
2017-06-05T00:52:27.694Z,85.83
2017-06-05T00:53:08.583Z,85.45
2017-06-05T00:53:49.473Z,85.45
2017-06-05T00:54:30.369Z,85.64
2017-06-05T00:55:11.301Z,85.35
2017-06-05T00:55:52.167Z,85.74
2017-06-05T00:56:33.064Z,85.98
2017-06-05T00:57:13.961Z,86.27
2017-06-05T00:57:54.859Z,86.36
2017-06-05T00:58:35.739Z,86.65
2017-06-05T00:59:16.646Z,86.17
2017-06-05T00:59:57.584Z,86.46
2017-06-05T01:00:38.463Z,86.46
2017-06-05T01:01:19.358Z,85.88
2017-06-05T01:02:00.253Z,85.41
2017-06-05T01:02:41.146Z,85.54
2017-06-05T01:03:22.040Z,85.74
2017-06-05T01:04:02.918Z,85.93
2017-06-05T01:04:43.799Z,85.5
2017-06-05T01:05:24.691Z,86.31
2017-06-05T01:06:05.579Z,85.83
2017-06-05T01:06:46.461Z,85.69
2017-06-05T01:07:27.340Z,85.69
2017-06-05T01:08:08.234Z,86.08
2017-06-05T01:08:49.112Z,85.79
2017-06-05T01:09:30.054Z,85.98
2017-06-05T01:10:10.944Z,86.55
2017-06-05T01:10:51.832Z,86.17
2017-06-05T01:11:32.780Z,86.27
2017-06-05T01:12:13.670Z,86.36
2017-06-05T01:12:54.591Z,85.88
2017-06-05T01:13:35.459Z,86.27
2017-06-05T01:14:16.345Z,86.31
2017-06-05T01:14:57.240Z,86.17
2017-06-05T01:15:38.106Z,86.36
2017-06-05T01:16:19.008Z,87.74
2017-06-05T01:16:59.899Z,88.03
2017-06-05T01:17:40.777Z,88.66
2017-06-05T01:18:21.755Z,87.99
2017-06-05T01:19:02.619Z,88.42
2017-06-05T01:19:43.497Z,87.46
2017-06-05T01:20:24.390Z,87.17
2017-06-05T01:21:05.275Z,86.98
2017-06-05T01:21:46.163Z,86.69
2017-06-05T01:22:27.089Z,86.69
2017-06-05T01:23:07.950Z,87.08
2017-06-05T01:23:48.910Z,87.17
2017-06-05T01:24:29.782Z,87.37
2017-06-05T01:25:10.668Z,86.31
2017-06-05T01:25:51.561Z,86.5
2017-06-05T01:26:32.446Z,86.12
2017-06-05T01:27:13.332Z,86.5
2017-06-05T01:27:54.238Z,86.21
2017-06-05T01:28:35.123Z,86.31
2017-06-05T01:29:16.003Z,86.12
2017-06-05T01:29:56.895Z,86.31
2017-06-05T01:30:37.789Z,86.21
2017-06-05T01:31:18.670Z,86.21
2017-06-05T01:31:59.552Z,86.12
2017-06-05T01:32:40.451Z,86.21
2017-06-05T01:33:21.339Z,86.5
2017-06-05T01:34:02.228Z,86.31
2017-06-05T01:34:43.127Z,86.69
2017-06-05T01:35:24.018Z,86.12
2017-06-05T01:36:04.937Z,86.6
2017-06-05T01:36:45.850Z,86.31
2017-06-05T01:37:26.707Z,85.35
2017-06-05T01:38:07.611Z,85.35
2017-06-05T01:38:48.494Z,86.12
2017-06-05T01:39:29.373Z,85.74
2017-06-05T01:40:10.265Z,85.83
2017-06-05T01:40:51.153Z,86.6
2017-06-05T01:41:32.041Z,87.17
2017-06-05T01:42:12.929Z,86.98
2017-06-05T01:42:53.821Z,87.27
2017-06-05T01:43:34.706Z,87.65
2017-06-05T01:44:15.590Z,87.17
2017-06-05T01:44:56.496Z,86.21
2017-06-05T01:45:37.376Z,85.93
2017-06-05T01:46:18.265Z,86.21
2017-06-05T01:46:59.158Z,86.21
2017-06-05T01:47:40.053Z,86.5
2017-06-05T01:48:20.943Z,87.55
2017-06-05T01:49:01.834Z,87.55
2017-06-05T01:49:42.731Z,87.46
2017-06-05T01:50:23.617Z,86.98
2017-06-05T01:51:04.505Z,87.08
2017-06-05T01:51:45.397Z,87.55
2017-06-05T01:52:26.281Z,87.37
2017-06-05T01:53:07.173Z,87.27
2017-06-05T01:53:48.063Z,88.42
2017-06-05T01:54:29.031Z,88.61
2017-06-05T01:55:09.923Z,88.13
2017-06-05T01:55:50.806Z,88.03
2017-06-05T01:56:31.702Z,88.23
2017-06-05T01:57:12.597Z,88.23
2017-06-05T01:57:53.489Z,87.55
2017-06-05T01:58:34.403Z,87.65
2017-06-05T01:59:15.276Z,88.03
2017-06-05T01:59:56.166Z,88.32
2017-06-05T02:00:37.055Z,89.66
2017-06-05T02:01:17.951Z,89.95
2017-06-05T02:01:58.839Z,89.18
2017-06-05T02:02:39.732Z,88.23
2017-06-05T02:03:20.629Z,88.8
2017-06-05T02:04:01.522Z,88.9
2017-06-05T02:04:42.407Z,88.13
2017-06-05T02:05:23.300Z,86.69
2017-06-05T02:06:04.193Z,86.12
2017-06-05T02:06:45.098Z,86.5
2017-06-05T02:07:25.982Z,86.5
2017-06-05T02:08:06.876Z,86.12
2017-06-05T02:08:47.770Z,85.54
2017-06-05T02:09:28.661Z,85.93
2017-06-05T02:10:09.553Z,84.88
2017-06-05T02:10:50.433Z,84.78
2017-06-05T02:11:31.334Z,84.2
2017-06-05T02:12:12.224Z,83.72
2017-06-05T02:12:53.133Z,83.15
2017-06-05T02:13:34.013Z,82.86
2017-06-05T02:14:14.918Z,82.48
2017-06-05T02:14:55.807Z,82.48
2017-06-05T02:15:36.698Z,81.9
2017-06-05T02:16:17.595Z,82.48
2017-06-05T02:16:58.484Z,81.71
2017-06-05T02:17:39.378Z,81.52
2017-06-05T02:18:20.273Z,81.71
2017-06-05T02:19:01.160Z,81.71
2017-06-05T02:19:42.051Z,81.43
2017-06-05T02:20:22.971Z,81.62
2017-06-05T02:21:03.870Z,81.33
2017-06-05T02:21:44.761Z,80.76
2017-06-05T02:22:25.650Z,81.04
2017-06-05T02:23:06.540Z,81.43
2017-06-05T02:23:47.436Z,80.76
2017-06-05T02:24:28.321Z,80.85
2017-06-05T02:25:09.226Z,81.04
2017-06-05T02:25:50.116Z,80.47
2017-06-05T02:26:30.996Z,80.37
2017-06-05T02:27:11.888Z,80.08
2017-06-05T02:27:52.774Z,80.18
2017-06-05T02:28:33.719Z,80.37
2017-06-05T02:29:14.613Z,80.47
2017-06-05T02:29:55.498Z,80.08
2017-06-05T02:30:36.401Z,80.18
2017-06-05T02:31:17.295Z,79.99
2017-06-05T02:31:58.195Z,79.7
2017-06-05T02:32:39.085Z,79.7
2017-06-05T02:33:19.980Z,79.8
2017-06-05T02:34:00.873Z,79.8
2017-06-05T02:34:41.761Z,79.8
2017-06-05T02:35:22.660Z,79.8
2017-06-05T02:36:03.548Z,79.8
2017-06-05T02:36:44.436Z,79.7
2017-06-05T02:37:25.325Z,79.99
2017-06-05T02:38:06.220Z,79.99
2017-06-05T02:38:47.106Z,80.18
2017-06-05T02:39:28.014Z,79.8
2017-06-05T02:40:08.897Z,79.6
2017-06-05T02:40:49.777Z,79.99
2017-06-05T02:41:30.670Z,79.6
2017-06-05T02:42:11.563Z,79.7
2017-06-05T02:42:52.461Z,79.8
2017-06-05T02:43:33.361Z,79.22
2017-06-05T02:44:14.259Z,79.22
2017-06-05T02:44:55.154Z,79.6
2017-06-05T02:45:36.046Z,79.32
2017-06-05T02:46:17.628Z,79.32
2017-06-05T02:46:58.551Z,80.08
2017-06-05T02:47:39.443Z,79.32
2017-06-05T02:48:20.353Z,79.99
2017-06-05T02:49:01.290Z,79.7
2017-06-05T02:49:42.185Z,80.08
2017-06-05T02:50:23.152Z,79.99
2017-06-05T02:51:04.010Z,79.99
2017-06-05T02:51:44.907Z,79.8
2017-06-05T02:52:25.803Z,79.8
2017-06-05T02:53:06.685Z,80.37
2017-06-05T02:53:47.572Z,80.66
2017-06-05T02:54:28.471Z,80.94
2017-06-05T02:55:09.362Z,80.85
2017-06-05T02:55:50.264Z,80.76
2017-06-05T02:56:31.152Z,80.56
2017-06-05T02:57:12.040Z,80.85
2017-06-05T02:57:52.937Z,81.33
2017-06-05T02:58:33.822Z,80.76
2017-06-05T02:59:14.784Z,80.94
2017-06-05T02:59:55.668Z,80.85
2017-06-05T03:00:36.582Z,80.85
2017-06-05T03:01:17.456Z,81.43
2017-06-05T03:01:58.344Z,80.94
2017-06-05T03:02:39.247Z,81.52
2017-06-05T03:03:20.140Z,81.13
2017-06-05T03:04:01.025Z,81.23
2017-06-05T03:04:41.930Z,80.94
2017-06-05T03:05:22.817Z,81.33
2017-06-05T03:06:03.724Z,81.77
2017-06-05T03:06:44.617Z,81.81
2017-06-05T03:07:25.529Z,81.62
2017-06-05T03:08:06.453Z,82.34
2017-06-05T03:08:47.343Z,82.34
2017-06-05T03:09:28.241Z,82
2017-06-05T03:10:09.155Z,82.38
2017-06-05T03:10:50.035Z,82.76
2017-06-05T03:11:30.949Z,82.73
2017-06-05T03:12:11.811Z,82.82
2017-06-05T03:12:52.703Z,82.92
2017-06-05T03:13:33.594Z,82.82
2017-06-05T03:14:14.486Z,82.82
2017-06-05T03:14:55.380Z,82.63
2017-06-05T03:15:36.266Z,82.43
2017-06-05T03:16:17.157Z,82.34
2017-06-05T03:16:58.058Z,82.15
2017-06-05T03:17:38.954Z,82.19
2017-06-05T03:18:19.841Z,82.15
2017-06-05T03:19:00.740Z,82.34
2017-06-05T03:19:41.620Z,82.34
2017-06-05T03:20:22.516Z,82.24
2017-06-05T03:21:03.409Z,82.73
2017-06-05T03:21:44.296Z,82.34
2017-06-05T03:22:25.201Z,82.53
2017-06-05T03:23:06.086Z,82.53
2017-06-05T03:23:46.971Z,82.06
2017-06-05T03:24:27.874Z,83.01
2017-06-05T03:25:08.761Z,83.01
2017-06-05T03:25:49.656Z,83.59
2017-06-05T03:26:30.552Z,83.11
2017-06-05T03:27:11.439Z,82.92
2017-06-05T03:27:52.334Z,83.11
2017-06-05T03:28:33.221Z,83.01
2017-06-05T03:29:14.174Z,83.2
2017-06-05T03:29:55.023Z,83.49
2017-06-05T03:30:35.916Z,82.73
2017-06-05T03:31:16.812Z,83.01
2017-06-05T03:31:57.712Z,82.82
2017-06-05T03:32:38.597Z,82.73
2017-06-05T03:33:19.491Z,82.06
2017-06-05T03:34:00.391Z,82.73
2017-06-05T03:34:41.276Z,82.92
2017-06-05T03:35:22.168Z,82.82
2017-06-05T03:36:03.070Z,82.15
2017-06-05T03:36:43.961Z,82.53
2017-06-05T03:37:24.863Z,82.24
2017-06-05T03:38:05.826Z,82.24
2017-06-05T03:38:46.688Z,82.34
2017-06-05T03:39:27.573Z,82.34
2017-06-05T03:40:08.486Z,81.48
2017-06-05T03:40:49.379Z,82.06
2017-06-05T03:41:30.290Z,82.24
2017-06-05T03:42:11.183Z,81.71
2017-06-05T03:42:52.072Z,81.62
2017-06-05T03:43:32.964Z,81.67
2017-06-05T03:44:13.862Z,81.48
2017-06-05T03:44:54.761Z,81.71
2017-06-05T03:45:35.647Z,81.62
2017-06-05T03:46:16.538Z,81.04
2017-06-05T03:46:57.625Z,80.85
2017-06-05T03:47:38.516Z,80.56
2017-06-05T03:48:19.465Z,80.76
2017-06-05T03:49:00.394Z,81.29
2017-06-05T03:49:41.303Z,81.33
2017-06-05T03:50:22.191Z,80.66
2017-06-05T03:51:03.075Z,80.27
2017-06-05T03:51:43.968Z,80.37
2017-06-05T03:52:24.859Z,80.76
2017-06-05T03:53:05.741Z,80.76
2017-06-05T03:53:46.625Z,80.85
2017-06-05T03:54:27.520Z,80.85
2017-06-05T03:55:08.405Z,80.94
2017-06-05T03:55:49.328Z,80.76
2017-06-05T03:56:30.223Z,80.47
2017-06-05T03:57:11.103Z,80.66
2017-06-05T03:57:51.997Z,80.62
2017-06-05T03:58:32.892Z,80.76
2017-06-05T03:59:13.769Z,81.33
2017-06-05T03:59:54.654Z,81.29
2017-06-05T04:00:35.533Z,81.38
2017-06-05T04:01:16.469Z,81.77
2017-06-05T04:01:57.369Z,81.77
2017-06-05T04:02:38.259Z,81.43
2017-06-05T04:03:19.150Z,81.62
2017-06-05T04:04:00.038Z,80.94
2017-06-05T04:04:40.924Z,81.33
2017-06-05T04:05:21.823Z,81.23
2017-06-05T04:06:02.726Z,81.43
2017-06-05T04:06:43.641Z,81.38
2017-06-05T04:07:24.531Z,81.77
2017-06-05T04:08:05.432Z,81.48
2017-06-05T04:08:46.329Z,82.34
2017-06-05T04:09:27.222Z,82.43
2017-06-05T04:10:08.116Z,82.06
2017-06-05T04:10:48.997Z,82.63
2017-06-05T04:11:29.883Z,82.82
2017-06-05T04:12:10.771Z,82.92
2017-06-05T04:12:51.653Z,83.11
2017-06-05T04:13:32.535Z,83.59
2017-06-05T04:14:13.425Z,83.68
2017-06-05T04:14:54.328Z,83.49
2017-06-05T04:15:35.220Z,83.49
2017-06-05T04:16:16.119Z,83.49
2017-06-05T04:16:57.018Z,83.68
2017-06-05T04:17:37.909Z,83.59
2017-06-05T04:18:18.827Z,83.87
2017-06-05T04:18:59.694Z,83.68
2017-06-05T04:19:40.578Z,83.78
2017-06-05T04:20:21.468Z,84.06
2017-06-05T04:21:02.372Z,83.78
2017-06-05T04:21:43.266Z,83.97
2017-06-05T04:22:24.177Z,83.68
2017-06-05T04:23:05.074Z,83.68
2017-06-05T04:23:45.981Z,83.68
2017-06-05T04:24:26.875Z,83.59
2017-06-05T04:25:07.815Z,83.68
2017-06-05T04:25:48.713Z,83.01
2017-06-05T04:26:29.629Z,83.01
2017-06-05T04:27:10.528Z,83.11
2017-06-05T04:27:51.430Z,82.53
2017-06-05T04:28:32.315Z,82.24
2017-06-05T04:29:13.205Z,82.63
2017-06-05T04:29:54.108Z,81.52
2017-06-05T04:30:34.990Z,81.77
2017-06-05T04:31:15.909Z,81.48
2017-06-05T04:31:56.808Z,81.86
2017-06-05T04:32:37.696Z,82.24
2017-06-05T04:33:18.587Z,82.43
2017-06-05T04:33:59.484Z,82.15
2017-06-05T04:34:40.374Z,81.81
2017-06-05T04:35:21.258Z,79.99
2017-06-05T04:36:02.149Z,80.27
2017-06-05T04:36:43.048Z,80.52
2017-06-05T04:37:23.939Z,81.1
2017-06-05T04:38:04.827Z,81.77
2017-06-05T04:38:45.738Z,81.48
2017-06-05T04:39:26.631Z,81.57
2017-06-05T04:40:07.506Z,80.24
2017-06-05T04:40:48.405Z,80.24
2017-06-05T04:41:29.315Z,80.24
2017-06-05T04:42:10.207Z,80.27
2017-06-05T04:42:51.127Z,80.18
2017-06-05T04:43:32.011Z,79.75
2017-06-05T04:44:12.897Z,79.8
2017-06-05T04:44:53.800Z,79.41
2017-06-05T04:45:34.678Z,80.08
2017-06-05T04:46:15.573Z,79.66
2017-06-05T04:46:56.463Z,79.57
2017-06-05T04:47:44.318Z,79.66
2017-06-05T04:48:25.209Z,79.75
2017-06-05T04:49:06.103Z,80.52
2017-06-05T04:49:46.984Z,80.33
2017-06-05T04:50:27.861Z,80.71
2017-06-05T04:51:08.745Z,81
2017-06-05T04:51:49.630Z,80.43
2017-06-05T04:52:30.518Z,80.43
2017-06-05T04:53:11.404Z,79.95
2017-06-05T04:53:52.333Z,79.99
2017-06-05T04:54:33.208Z,79.37
2017-06-05T04:55:14.144Z,79.85
2017-06-05T04:55:55.012Z,79.95
2017-06-05T04:56:35.884Z,79.66
2017-06-05T04:57:16.788Z,79.95
2017-06-05T04:57:57.694Z,79.41
2017-06-05T04:58:38.591Z,79.03
2017-06-05T04:59:19.471Z,78.99
2017-06-05T05:00:00.356Z,79.28
2017-06-05T05:00:41.230Z,79.85
2017-06-05T05:01:22.131Z,79.18
2017-06-05T05:02:03.027Z,78.89
2017-06-05T05:02:45.188Z,78.27
2017-06-05T05:04:13.307Z,78.45
2017-06-05T05:04:54.184Z,78.7
2017-06-05T05:05:35.079Z,78.27
2017-06-05T05:06:15.971Z,78.42
2017-06-05T05:06:56.848Z,78.51
2017-06-05T05:07:37.735Z,78.03
2017-06-05T05:08:18.624Z,77.94
2017-06-05T05:08:59.505Z,77.65
2017-06-05T05:09:40.397Z,77.26
2017-06-05T05:10:21.289Z,77.11
2017-06-05T05:11:02.180Z,77.31
2017-06-05T05:11:43.109Z,77.08
2017-06-05T05:12:23.992Z,77.59
2017-06-05T05:13:04.868Z,77.21
2017-06-05T05:13:45.750Z,76.92
2017-06-05T05:14:26.642Z,76.54
2017-06-05T05:15:07.525Z,76.92
2017-06-05T05:15:48.410Z,76.31
2017-06-05T05:16:29.305Z,76.89
2017-06-05T05:17:10.177Z,76.92
2017-06-05T05:17:51.060Z,76.98
2017-06-05T05:18:31.942Z,77.55
2017-06-05T05:19:12.837Z,77.11
2017-06-05T05:19:53.697Z,76.44
2017-06-05T05:20:34.582Z,75.77
2017-06-05T05:21:15.456Z,75.77
2017-06-05T05:21:56.343Z,74.33
2017-06-05T05:22:37.219Z,74.76
2017-06-05T05:23:18.108Z,73.99
2017-06-05T05:23:58.988Z,73.66
2017-06-05T05:24:39.854Z,73.57
2017-06-05T05:25:20.743Z,72.61
2017-06-05T05:26:01.619Z,72.27
2017-06-05T05:26:42.502Z,72.13
2017-06-05T05:27:23.383Z,72.8
2017-06-05T05:28:04.278Z,72.42
2017-06-05T05:28:45.157Z,71.66
2017-06-05T05:29:26.044Z,71.66
2017-06-05T05:30:06.972Z,71.84
2017-06-05T05:30:47.845Z,71.94
2017-06-05T05:31:28.732Z,71.69
2017-06-05T05:32:09.625Z,71.5
2017-06-05T05:32:50.500Z,71.02
2017-06-05T05:33:31.388Z,70.64
2017-06-05T05:34:12.264Z,70.44
2017-06-05T05:34:53.142Z,69.87
2017-06-05T05:35:34.024Z,70.35
2017-06-05T05:36:14.906Z,69.77
2017-06-05T05:36:55.793Z,68.72
2017-06-05T05:37:36.658Z,68.56
2017-06-05T05:38:17.544Z,67.99
2017-06-05T05:38:58.432Z,67.6
2017-06-05T05:39:39.322Z,67.5
2017-06-05T05:40:20.202Z,67.5
2017-06-05T05:41:01.083Z,67.32
2017-06-05T05:41:41.978Z,67.41
2017-06-05T05:42:22.853Z,68.05
2017-06-05T05:43:03.724Z,68.91
2017-06-05T05:43:44.603Z,68.43
2017-06-05T05:44:25.496Z,68.72
2017-06-05T05:45:06.378Z,69.01
2017-06-05T05:45:47.256Z,68.46
2017-06-05T05:46:28.142Z,68.46
2017-06-05T05:47:09.049Z,67.63
2017-06-05T05:47:49.935Z,67.5
2017-06-05T05:48:30.822Z,68.05
2017-06-05T05:49:11.709Z,68.14
2017-06-05T05:49:52.588Z,68.24
2017-06-05T05:50:33.476Z,68.33
2017-06-05T05:51:14.331Z,68.24
2017-06-05T05:51:55.218Z,67.85
2017-06-05T05:52:36.111Z,68.43
2017-06-05T05:53:17.005Z,68.43
2017-06-05T05:53:57.892Z,68.24
2017-06-05T05:54:38.773Z,67.38
2017-06-05T05:55:19.660Z,67.76
2017-06-05T05:56:00.539Z,68.43
2017-06-05T05:56:41.422Z,67.95
2017-06-05T05:57:22.314Z,68.24
2017-06-05T05:58:03.228Z,68.33
2017-06-05T05:58:44.104Z,68.33
2017-06-05T05:59:24.992Z,68.81
2017-06-05T06:00:05.889Z,68.91
2017-06-05T06:00:46.756Z,68.72
2017-06-05T06:01:27.665Z,68.24
2017-06-05T06:02:08.539Z,67.18
2017-06-05T06:02:49.496Z,66.35
2017-06-05T06:03:30.371Z,66.61
2017-06-05T06:04:11.259Z,67.38
2017-06-05T06:04:52.166Z,67.28
2017-06-05T06:05:33.063Z,67.32
2017-06-05T06:06:13.953Z,66.55
2017-06-05T06:06:54.834Z,65.75
2017-06-05T06:07:35.723Z,66.16
2017-06-05T06:08:16.600Z,66.06
2017-06-05T06:08:57.483Z,65.01
2017-06-05T06:09:38.360Z,65.39
2017-06-05T06:10:19.254Z,64.47
2017-06-05T06:11:00.160Z,63.6
2017-06-05T06:11:41.044Z,62.74
2017-06-05T06:12:21.934Z,62.87
2017-06-05T06:13:02.822Z,62.39
2017-06-05T06:13:43.727Z,61.43
2017-06-05T06:14:24.623Z,62.1
2017-06-05T06:15:05.514Z,61.52
2017-06-05T06:15:46.410Z,60.75
2017-06-05T06:16:27.303Z,60.69
2017-06-05T06:17:08.195Z,59.57
2017-06-05T06:17:49.084Z,59.54
2017-06-05T06:18:29.963Z,58.89
2017-06-05T06:19:10.843Z,59.54
2017-06-05T06:19:51.730Z,60.24
2017-06-05T06:20:32.620Z,59.47
2017-06-05T06:21:13.503Z,58.64
2017-06-05T06:21:54.378Z,57.03
2017-06-05T06:22:35.264Z,56.45
2017-06-05T06:23:16.154Z,56.16
2017-06-05T06:23:57.037Z,55.33
2017-06-05T06:24:37.926Z,54.2
2017-06-05T06:25:18.804Z,53.84
2017-06-05T06:25:59.721Z,51.7
2017-06-05T06:26:40.599Z,50.54
2017-06-05T06:27:21.488Z,49.19
2017-06-05T06:28:02.369Z,49.02
2017-06-05T06:28:43.256Z,48.01
2017-06-05T06:29:24.153Z,47.12
2017-06-05T06:30:05.039Z,47.6
2017-06-05T06:30:45.935Z,47.89
2017-06-05T06:31:26.825Z,47.53
2017-06-05T06:32:07.717Z,47.39
2017-06-05T06:32:48.611Z,48.33
2017-06-05T06:33:29.504Z,49.02
2017-06-05T06:34:10.402Z,49.1
2017-06-05T06:34:51.305Z,48.81
2017-06-05T06:35:32.203Z,49.38
2017-06-05T06:36:13.114Z,49.77
2017-06-05T06:36:53.997Z,48.74
2017-06-05T06:37:34.890Z,52.13
2017-06-05T06:38:15.774Z,50.98
2017-06-05T06:38:56.670Z,48.43
2017-06-05T06:39:37.570Z,52.18
2017-06-05T06:40:18.456Z,50.93
2017-06-05T06:40:59.343Z,50.35
2017-06-05T06:41:40.233Z,50.32
2017-06-05T06:42:21.153Z,49.94
2017-06-05T06:43:02.033Z,48.74
2017-06-05T06:43:42.926Z,46.86
2017-06-05T06:45:16.224Z,44.97
2017-06-05T06:45:57.121Z,43.64
2017-06-05T06:46:38.014Z,43.81
2017-06-05T06:47:18.901Z,44.4
2017-06-05T06:47:59.803Z,46.52
2017-06-05T06:48:40.696Z,45.56
2017-06-05T06:49:21.592Z,46.15
2017-06-05T06:50:02.485Z,45.94
2017-06-05T06:50:43.380Z,46.01
2017-06-05T06:51:24.281Z,47.24
2017-06-05T06:52:05.182Z,48.4
2017-06-05T06:52:46.076Z,47.36
2017-06-05T06:53:26.976Z,45.63
2017-06-05T06:54:07.868Z,46.86
2017-06-05T06:54:48.762Z,47.51
2017-06-05T06:55:29.663Z,49.19
2017-06-05T06:56:10.562Z,47.89
2017-06-05T06:56:51.454Z,48.74
2017-06-05T06:57:32.352Z,50.44
2017-06-05T06:58:13.236Z,51.37
2017-06-05T06:58:54.124Z,52.84
2017-06-05T06:59:35.016Z,52.97
2017-06-05T07:00:15.913Z,52.08
2017-06-05T07:00:56.818Z,51.72
2017-06-05T07:01:37.701Z,51.29
2017-06-05T07:02:18.600Z,48.9
2017-06-05T07:02:59.510Z,47.65
2017-06-05T07:03:40.407Z,47.92
2017-06-05T07:04:21.297Z,47
2017-06-05T07:05:02.183Z,47.12
2017-06-05T07:05:43.081Z,45.75
2017-06-05T07:06:23.971Z,45
2017-06-05T07:07:04.869Z,45.21
2017-06-05T07:07:45.757Z,43.46
2017-06-05T07:08:26.649Z,45.36
2017-06-05T07:09:07.563Z,44.98
2017-06-05T07:09:48.465Z,45.25
2017-06-05T07:10:29.350Z,45.63
2017-06-05T07:11:10.248Z,46.86
2017-06-05T07:11:51.150Z,46.47
2017-06-05T07:12:32.049Z,47.15
2017-06-05T07:13:12.934Z,47.8
2017-06-05T07:13:53.820Z,48.08
2017-06-05T07:14:34.737Z,48.18
2017-06-05T07:15:15.637Z,47.82
2017-06-05T07:15:56.533Z,47.72
2017-06-05T07:16:37.434Z,48.28
2017-06-05T07:17:18.332Z,48.11
2017-06-05T07:17:59.231Z,47.63
2017-06-05T07:18:40.127Z,47.36
2017-06-05T07:19:21.018Z,46.93
2017-06-05T07:20:01.899Z,44.73
2017-06-05T07:20:42.803Z,44.45
2017-06-05T07:21:23.697Z,45.2
2017-06-05T07:22:04.577Z,46.11
2017-06-05T07:22:45.480Z,46.11
2017-06-05T07:23:26.377Z,46.21
2017-06-05T07:24:07.266Z,46.37
2017-06-05T07:24:48.164Z,44.39
2017-06-05T07:25:29.062Z,43.66
2017-06-05T07:26:09.937Z,41.58
2017-06-05T07:26:50.837Z,39.84
2017-06-05T07:27:31.736Z,39.9
2017-06-05T07:28:12.674Z,40.94
2017-06-05T07:28:53.557Z,41.33
2017-06-05T07:29:34.473Z,41.08
2017-06-05T07:30:15.388Z,39.36
2017-06-05T07:30:56.297Z,40.34
2017-06-05T07:31:37.205Z,38.71
2017-06-05T07:32:18.107Z,38.73
2017-06-05T07:32:59.005Z,37.21
2017-06-05T07:33:39.902Z,36.72
2017-06-05T07:34:20.808Z,37.46
2017-06-05T07:35:01.701Z,36.04
2017-06-05T07:35:42.600Z,38.16
2017-06-05T07:36:23.503Z,40.42
2017-06-05T07:37:04.399Z,43.15
2017-06-05T07:37:45.306Z,44.28
2017-06-05T07:38:26.214Z,45.34
2017-06-05T07:39:07.120Z,45.12
2017-06-05T07:39:48.033Z,43.74
2017-06-05T07:40:28.938Z,41.44
2017-06-05T07:41:09.823Z,40.2
2017-06-05T07:41:50.732Z,39.36
2017-06-05T07:42:31.638Z,39.84
2017-06-05T07:43:12.573Z,39.57
2017-06-05T07:43:53.475Z,38.6
2017-06-05T07:44:34.389Z,39.69
2017-06-05T07:45:15.291Z,42.73
2017-06-05T07:45:56.192Z,44.46
2017-06-05T07:46:37.087Z,43.54
2017-06-05T07:47:17.992Z,45.68
2017-06-05T07:47:58.856Z,45.97
2017-06-05T07:48:39.766Z,45.84
2017-06-05T07:49:20.641Z,44.73
2017-06-05T07:50:01.538Z,43.79
2017-06-05T07:50:42.441Z,43.5
2017-06-05T07:51:23.343Z,44.32
2017-06-05T07:52:04.241Z,45.65
2017-06-05T07:52:45.132Z,45.44
2017-06-05T07:53:26.064Z,47.36
2017-06-05T07:54:06.966Z,47
2017-06-05T07:54:47.869Z,45.46
2017-06-05T07:55:28.780Z,45.15
2017-06-05T07:56:09.705Z,45.73
2017-06-05T07:56:50.570Z,46.23
2017-06-05T07:57:31.505Z,45.03
2017-06-05T07:58:12.395Z,44.45
2017-06-05T07:58:53.290Z,43.79
2017-06-05T07:59:34.197Z,43
2017-06-05T08:00:15.097Z,43.67
2017-06-05T08:00:56.003Z,43.41
2017-06-05T08:01:36.902Z,44.42
2017-06-05T08:02:17.799Z,44.13
2017-06-05T08:02:58.698Z,44.81
2017-06-05T08:03:39.604Z,45.58
2017-06-05T08:04:20.510Z,45.1
2017-06-05T08:05:01.405Z,45.24
2017-06-05T08:05:42.303Z,42.77
2017-06-05T08:06:23.201Z,42.24
2017-06-05T08:07:04.110Z,41.48
2017-06-05T08:07:44.997Z,40.83
2017-06-05T08:08:25.895Z,39.41
2017-06-05T08:09:06.800Z,36.82
2017-06-05T08:09:47.716Z,35.07
2017-06-05T08:10:28.621Z,35.64
2017-06-05T08:11:09.557Z,37.41
2017-06-05T08:11:50.453Z,37.05
2017-06-05T08:12:31.372Z,35.71
2017-06-05T08:13:12.271Z,35.24
2017-06-05T08:13:53.168Z,33.28
2017-06-05T08:14:34.080Z,34.81
2017-06-05T08:15:14.984Z,36.78
2017-06-05T08:15:55.886Z,37.77
2017-06-05T08:16:36.784Z,36.64
2017-06-05T08:17:17.698Z,34.8
2017-06-05T08:17:58.607Z,34.14
2017-06-05T08:18:39.509Z,33.47
2017-06-05T08:19:20.413Z,33.69
2017-06-05T08:20:01.370Z,33.7
2017-06-05T08:20:42.264Z,34.3
2017-06-05T08:21:23.157Z,34.59
2017-06-05T08:22:04.066Z,34.5
2017-06-05T08:22:44.989Z,32.37
2017-06-05T08:23:25.889Z,31.45
2017-06-05T08:24:06.793Z,33.38
2017-06-05T08:24:47.704Z,34.54
2017-06-05T08:25:28.609Z,33.7
2017-06-05T08:26:09.495Z,33.04
2017-06-05T08:26:50.408Z,32.23
2017-06-05T08:27:31.306Z,32.39
2017-06-05T08:28:12.202Z,33.54
2017-06-05T08:28:53.105Z,35.09
2017-06-05T08:29:34.010Z,34.43
2017-06-05T08:30:14.914Z,34.31
2017-06-05T08:30:55.816Z,35.42
2017-06-05T08:31:36.725Z,36.76
2017-06-05T08:32:17.635Z,36.62
2017-06-05T08:32:58.546Z,35.3
2017-06-05T08:33:39.463Z,34.27
2017-06-05T08:34:20.366Z,36.84
2017-06-05T08:35:01.321Z,37.73
2017-06-05T08:35:42.260Z,37.07
2017-06-05T08:36:23.144Z,35.94
2017-06-05T08:37:04.066Z,34.69
2017-06-05T08:37:44.969Z,35.67
2017-06-05T08:38:25.869Z,35.56
2017-06-05T08:39:06.779Z,35.49
2017-06-05T08:39:47.700Z,32.67
2017-06-05T08:40:28.623Z,35.31
2017-06-05T08:41:09.523Z,38.6
2017-06-05T08:41:50.449Z,40.05
2017-06-05T08:42:31.348Z,40.05
2017-06-05T08:43:12.263Z,39.06
2017-06-05T08:43:53.167Z,39.22
2017-06-05T08:44:34.091Z,40.71
2017-06-05T08:45:15.001Z,37.07
2017-06-05T08:45:55.909Z,38.07
2017-06-05T08:46:36.824Z,36.48
2017-06-05T08:47:17.749Z,33.12
2017-06-05T08:47:58.650Z,32.28
2017-06-05T08:48:39.568Z,30.85
2017-06-05T08:49:20.501Z,30.87
2017-06-05T08:50:01.397Z,28.94
2017-06-05T08:50:42.321Z,29.74